Portada
METAR-TAF:

METAR-TAF

Aeroports :

Shawano, Wisconsin, Estats Units d'Amèrica

latitud: 44-47-14N, longitud: 088-33-36W, altitud: 248 m

Observació

L'informe es va fer fa 12 minuts, a les 03:35 UTC
Vent 3 kt del Oest
Temperatura 23°C
Humitat 89%
Pressió 1013 hPa
Visibilitat: 16.1 km
Núvols disperses a una alçada de 5500 ft
Cel cobert a una alçada de 8000 ft
pluja

METAR: KEZS 180335Z AUTO 28003KT 10SM -RA SCT055 OVC080 23/21 A2991 RMK AO2 LTG DSNT SW P0006 T02290211

Hora: 22:47 (03:47 UTC)


TAF: manca

Observacions i pronòstics meteorològics de més de 4000 aeroports (METAR i TAF).

Les estacions disponibles són els punts grocs i vermells al mapa.

Posi el ratolí al punt desitjat per veure el nom de l'estació.

Feu clic per veure les observacions i els pronòstics meteorològics.

Per canviar el mapa: feu clic els botons verds amb una creu de color negre per apropar; al botó verd amb un guió per allunyar la imatge; o en les fletxes verdes per a mapes adjacents.


METAR-TAF: